Time;durP1;ratioP1;P1;durP2;ratioP2;P2;SDS_P1;SDS_P2;PMS_P1;PMS_P2;Temp;Humidity;BMP_temperature;BMP_pressure;BME280_temperature;BME280_humidity;BME280_pressure;Samples;Min_cycle;Max_cycle;Signal;HPM_P1;HPM_P2
2022/06/17 00:01:42;;;;;;;3.43;1.70;;;16.00;99.90;;;;;;12208557;29;21826;-80
2022/06/17 00:07:44;;;;;;;3.88;1.73;;;16.00;99.90;;;;;;12191297;29;20855;-80
2022/06/17 00:13:46;;;;;;;5.18;2.05;;;15.90;99.90;;;;;;12187514;29;20076;-80
2022/06/17 00:19:47;;;;;;;4.00;1.85;;;15.80;99.90;;;;;;12191217;29;20056;-80
2022/06/17 00:25:49;;;;;;;3.38;1.77;;;15.60;99.90;;;;;;12190283;29;20082;-80
2022/06/17 00:31:52;;;;;;;3.30;2.05;;;15.50;99.90;;;;;;12196202;29;20044;-80
2022/06/17 00:37:54;;;;;;;3.08;1.80;;;15.40;99.90;;;;;;12205999;29;20059;-80
2022/06/17 00:43:57;;;;;;;3.47;2.00;;;15.30;99.90;;;;;;12167730;29;20135;-79
2022/06/17 00:50:15;;;;;;;6.27;2.33;;;15.20;99.90;;;;;;12210378;29;20579;-81
2022/06/17 00:56:24;;;;;;;3.80;2.00;;;15.10;99.90;;;;;;12211624;29;20059;-81
2022/06/17 01:02:29;;;;;;;3.60;2.05;;;15.00;99.90;;;;;;12181491;29;20040;-81
2022/06/17 01:14:56;;;;;;;5.10;2.15;;;14.90;99.90;;;;;;12200585;29;20464;-81
2022/06/17 01:21:01;;;;;;;4.85;2.20;;;14.70;99.90;;;;;;12200558;29;20075;-81
2022/06/17 01:27:05;;;;;;;3.75;1.90;;;14.60;99.90;;;;;;12170725;29;20488;-81
2022/06/17 01:33:44;;;;;;;8.15;2.45;;;14.60;99.90;;;;;;12176171;29;20135;-81
2022/06/17 01:39:46;;;;;;;5.22;2.30;;;14.60;99.90;;;;;;12160239;29;20059;-81
2022/06/17 01:45:55;;;;;;;5.30;2.20;;;14.50;99.90;;;;;;12191398;29;20048;-82
2022/06/17 01:52:03;;;;;;;5.70;2.60;;;14.40;99.90;;;;;;12180125;29;20055;-81
2022/06/17 01:58:17;;;;;;;3.58;2.22;;;14.40;99.90;;;;;;12189423;29;20060;-82
2022/06/17 02:04:23;;;;;;;4.93;2.47;;;14.40;99.90;;;;;;12178599;29;20056;-81
2022/06/17 02:10:32;;;;;;;3.80;2.42;;;14.40;99.90;;;;;;12197840;29;20068;-81
2022/06/17 02:16:38;;;;;;;5.95;2.58;;;14.30;99.90;;;;;;12195923;29;20472;-82
2022/06/17 02:22:40;;;;;;;6.93;2.47;;;14.30;99.90;;;;;;12194769;29;20141;-81
2022/06/17 02:28:43;;;;;;;7.07;3.10;;;14.20;99.90;;;;;;12195903;29;20112;-81
2022/06/17 02:35:03;;;;;;;4.23;2.57;;;14.20;99.90;;;;;;12184645;29;20448;-81
2022/06/17 02:41:12;;;;;;;4.88;2.70;;;14.20;99.90;;;;;;12202641;29;20082;-81
2022/06/17 02:47:14;;;;;;;6.80;2.67;;;14.30;99.90;;;;;;12181717;29;20135;-82
2022/06/17 02:53:20;;;;;;;5.40;2.33;;;14.20;99.90;;;;;;12219253;29;20531;-81
2022/06/17 02:59:39;;;;;;;5.30;2.60;;;14.00;99.90;;;;;;12189676;29;20056;-81
2022/06/17 03:05:44;;;;;;;5.43;2.50;;;13.90;99.90;;;;;;12195420;29;20118;-81
2022/06/17 03:12:07;;;;;;;6.10;3.10;;;13.90;99.90;;;;;;12244618;29;20076;-81
2022/06/17 03:18:09;;;;;;;4.05;2.20;;;14.00;99.90;;;;;;12227645;29;20040;-83
2022/06/17 03:24:38;;;;;;;5.47;2.33;;;14.00;99.90;;;;;;12173868;29;20079;-81
2022/06/17 03:30:44;;;;;;;5.65;2.85;;;13.90;99.90;;;;;;12186427;29;20048;-81
2022/06/17 03:36:55;;;;;;;9.63;2.75;;;13.60;99.90;;;;;;12193823;29;20052;-81
2022/06/17 03:43:30;;;;;;;8.68;2.55;;;13.60;99.90;;;;;;12177092;29;20048;-81
2022/06/17 03:49:43;;;;;;;6.35;2.65;;;13.50;99.90;;;;;;12165293;29;20564;-82
2022/06/17 03:55:45;;;;;;;6.97;2.60;;;13.50;99.90;;;;;;12184338;29;20184;-81
2022/06/17 04:01:54;;;;;;;4.10;2.30;;;13.50;99.90;;;;;;12167516;29;20135;-81
2022/06/17 04:07:56;;;;;;;4.45;2.83;;;13.60;99.90;;;;;;12170343;29;20048;-81
2022/06/17 04:14:01;;;;;;;9.18;2.78;;;13.60;99.90;;;;;;12186318;29;20055;-82
2022/06/17 04:20:12;;;;;;;4.85;2.58;;;13.70;99.90;;;;;;12187305;29;20127;-81
2022/06/17 04:26:31;;;;;;;5.80;2.58;;;13.70;99.90;;;;;;12185679;29;20118;-81
2022/06/17 04:32:34;;;;;;;5.50;2.75;;;13.60;99.90;;;;;;12184535;29;20080;-81
2022/06/17 04:38:51;;;;;;;6.25;3.00;;;13.70;99.90;;;;;;12175898;29;20064;-82
2022/06/17 04:44:53;;;;;;;4.13;3.20;;;13.70;99.90;;;;;;12186235;29;20523;-81
2022/06/17 04:50:55;;;;;;;8.10;3.13;;;13.70;99.90;;;;;;12177530;29;20052;-81
2022/06/17 04:56:58;;;;;;;5.70;3.20;;;13.80;99.90;;;;;;12190897;29;20059;-82
2022/06/17 05:03:00;;;;;;;7.60;3.13;;;13.80;99.90;;;;;;12200022;29;20096;-82
2022/06/17 05:09:20;;;;;;;7.45;3.30;;;13.90;99.90;;;;;;12188118;29;20452;-82
2022/06/17 05:15:22;;;;;;;7.05;3.33;;;13.80;99.90;;;;;;12172047;29;20460;-81
2022/06/17 05:21:25;;;;;;;9.45;3.67;;;13.80;99.90;;;;;;12177829;29;20056;-82
2022/06/17 05:27:27;;;;;;;5.05;3.35;;;14.00;99.90;;;;;;12195054;29;20186;-81
2022/06/17 05:33:29;;;;;;;7.05;3.90;;;14.00;99.90;;;;;;12190413;29;20076;-81
2022/06/17 05:39:30;;;;;;;5.10;3.70;;;14.00;99.90;;;;;;12191881;29;20138;-82
2022/06/17 05:45:33;;;;;;;7.55;4.38;;;14.10;99.90;;;;;;12174220;29;20059;-81
2022/06/17 05:51:35;;;;;;;10.50;4.55;;;14.10;99.90;;;;;;12181687;29;20439;-81
2022/06/17 05:57:37;;;;;;;6.63;3.85;;;14.30;99.90;;;;;;12189948;29;20157;-81
2022/06/17 06:03:38;;;;;;;5.85;3.42;;;14.40;99.90;;;;;;12180489;29;21668;-79
2022/06/17 06:09:40;;;;;;;5.72;3.30;;;14.50;99.90;;;;;;12192834;29;20398;-79
2022/06/17 06:15:46;;;;;;;6.30;3.20;;;14.60;99.90;;;;;;12177573;29;20091;-79
2022/06/17 06:21:49;;;;;;;6.05;3.90;;;14.70;99.90;;;;;;12180499;29;20048;-81
2022/06/17 06:27:51;;;;;;;8.40;3.88;;;14.80;99.90;;;;;;12186307;29;20052;-80
2022/06/17 06:33:53;;;;;;;6.28;3.80;;;14.90;99.90;;;;;;12178003;29;20472;-79
2022/06/17 06:39:55;;;;;;;5.85;3.33;;;15.20;99.90;;;;;;12171559;29;20060;-79
2022/06/17 06:45:57;;;;;;;5.68;2.78;;;15.40;99.90;;;;;;12174611;29;20577;-82
2022/06/17 06:51:59;;;;;;;4.95;2.50;;;15.80;99.90;;;;;;12186459;29;20522;-79
2022/06/17 06:58:09;;;;;;;4.95;2.20;;;16.20;99.90;;;;;;12185631;29;20058;-79
2022/06/17 07:04:13;;;;;;;6.60;2.30;;;16.40;99.90;;;;;;12164067;29;20053;-80
2022/06/17 07:10:17;;;;;;;;;;;16.60;99.90;;;;;;12185881;29;20056;-79
2022/06/17 07:16:19;;;;;;;4.70;2.23;;;16.80;99.90;;;;;;12174616;29;20823;-79
2022/06/17 07:22:22;;;;;;;4.50;1.77;;;17.10;99.90;;;;;;12192483;29;20284;-79
2022/06/17 07:28:28;;;;;;;4.95;1.70;;;17.40;99.90;;;;;;12193078;29;20109;-80
2022/06/17 07:34:30;;;;;;;4.63;1.85;;;17.50;99.90;;;;;;12175504;29;20091;-81
2022/06/17 07:40:32;;;;;;;3.70;1.50;;;17.60;99.90;;;;;;12187333;29;20099;-81
2022/06/17 07:46:34;;;;;;;6.40;2.00;;;17.80;99.90;;;;;;12175815;29;20052;-80
2022/06/17 07:52:36;;;;;;;4.15;1.60;;;18.20;99.90;;;;;;12202759;29;20045;-80
2022/06/17 07:58:38;;;;;;;7.22;1.73;;;18.40;99.90;;;;;;12180437;29;20060;-80
2022/06/17 08:04:41;;;;;;;3.33;1.70;;;18.50;99.90;;;;;;12163475;29;20056;-81
2022/06/17 08:10:43;;;;;;;3.90;1.60;;;18.70;99.90;;;;;;12190956;29;20147;-81
2022/06/17 08:16:45;;;;;;;5.18;1.80;;;19.00;99.90;;;;;;12191502;29;20541;-81
2022/06/17 08:22:47;;;;;;;6.80;1.80;;;19.10;99.90;;;;;;12202654;29;20147;-81
2022/06/17 08:28:49;;;;;;;7.13;1.95;;;19.30;99.90;;;;;;12227089;29;20096;-82
2022/06/17 08:34:51;;;;;;;4.60;1.83;;;19.40;99.90;;;;;;12197791;29;20116;-82
2022/06/17 08:40:53;;;;;;;5.28;1.73;;;19.40;99.90;;;;;;12177103;29;20192;-80
2022/06/17 08:47:05;;;;;;;4.53;1.90;;;19.50;99.90;;;;;;12178413;29;20428;-81
2022/06/17 08:53:13;;;;;;;5.15;2.10;;;19.50;99.90;;;;;;12175457;29;20109;-81
2022/06/17 08:59:51;;;;;;;3.58;1.95;;;20.00;99.90;;;;;;12186936;29;20068;-81
2022/06/17 09:06:20;;;;;;;7.90;2.20;;;20.20;99.90;;;;;;12182593;29;20088;-81
2022/06/17 09:12:52;;;;;;;5.43;2.55;;;20.40;99.90;;;;;;12178051;29;20099;-81
2022/06/17 09:18:59;;;;;;;7.63;2.40;;;20.20;99.90;;;;;;12176968;29;20052;-82
2022/06/17 09:25:06;;;;;;;4.00;2.42;;;20.10;99.90;;;;;;12190337;29;20095;-81
2022/06/17 09:31:18;;;;;;;7.13;2.33;;;20.40;99.90;;;;;;12193861;29;20127;-81
2022/06/17 09:37:31;;;;;;;8.77;2.10;;;20.90;99.90;;;;;;12190669;29;20504;-81
2022/06/17 09:43:43;;;;;;;5.15;2.53;;;21.00;99.90;;;;;;12176006;29;20551;-80
2022/06/17 09:49:57;;;;;;;4.90;1.80;;;21.00;99.90;;;;;;12196290;29;20055;-80
2022/06/17 09:56:05;;;;;;;4.75;1.92;;;21.20;99.90;;;;;;12181666;29;20048;-81
2022/06/17 10:02:33;;;;;;;5.57;1.80;;;21.20;99.90;;;;;;12176025;29;20083;-82
2022/06/17 10:09:00;;;;;;;4.65;1.60;;;21.50;99.90;;;;;;12199013;29;20052;-82
2022/06/17 10:15:08;;;;;;;5.65;2.03;;;21.40;99.90;;;;;;12165371;29;20111;-82
2022/06/17 10:21:59;;;;;;;4.35;1.80;;;21.70;99.90;;;;;;12185409;29;20068;-82
2022/06/17 10:28:16;;;;;;;5.03;2.08;;;22.20;99.90;;;;;;12172578;29;20049;-81
2022/06/17 10:34:32;;;;;;;3.88;1.40;;;22.50;99.90;;;;;;12192431;29;20048;-82
2022/06/17 10:40:38;;;;;;;3.33;1.48;;;22.70;99.90;;;;;;12189300;29;20111;-82
2022/06/17 10:46:44;;;;;;;1.98;1.13;;;23.10;99.90;;;;;;12177060;29;20056;-82
2022/06/17 10:53:12;;;;;;;2.45;1.33;;;23.00;99.90;;;;;;12175804;29;20052;-82
2022/06/17 10:59:14;;;;;;;2.58;1.25;;;23.10;99.90;;;;;;12205225;29;20413;-83
2022/06/17 11:05:31;;;;;;;3.08;1.10;;;23.40;99.90;;;;;;12195648;29;20075;-82
2022/06/17 11:12:04;;;;;;;2.35;1.20;;;23.80;99.90;;;;;;12190082;29;20196;-82
2022/06/17 11:18:17;;;;;;;2.47;1.05;;;24.00;99.90;;;;;;12169011;29;20107;-83
2022/06/17 11:24:35;;;;;;;6.17;1.40;;;24.20;99.90;;;;;;12201998;29;20253;-82
2022/06/17 11:30:49;;;;;;;3.90;1.67;;;23.90;99.90;;;;;;12200444;29;21621;-82
2022/06/17 11:37:13;;;;;;;3.78;1.40;;;23.40;99.90;;;;;;12208635;29;20063;-83
2022/06/17 11:43:31;;;;;;;2.67;1.25;;;23.00;99.90;;;;;;12185392;29;20055;-82
2022/06/17 11:49:35;;;;;;;2.67;1.42;;;23.10;99.90;;;;;;12178022;29;20056;-81
2022/06/17 11:55:48;;;;;;;4.25;1.05;;;23.00;99.90;;;;;;12208864;29;20040;-82
2022/06/17 12:02:11;;;;;;;2.17;1.02;;;23.00;99.90;;;;;;12191610;29;20056;-81
2022/06/17 12:08:25;;;;;;;2.92;1.00;;;23.10;99.90;;;;;;12203476;29;20055;-83
2022/06/17 12:14:42;;;;;;;4.07;1.20;;;23.10;99.90;;;;;;12189056;29;20472;-81
2022/06/17 12:21:08;;;;;;;2.90;1.10;;;23.10;99.90;;;;;;12201046;29;20048;-83
2022/06/17 12:27:28;;;;;;;4.88;1.00;;;23.50;99.90;;;;;;12202249;29;20143;-84
2022/06/17 12:34:25;;;;;;;4.07;1.23;;;23.70;99.90;;;;;;12193858;29;20051;-84
2022/06/17 12:40:45;;;;;;;2.20;1.00;;;23.40;99.90;;;;;;12177862;29;20197;-84
2022/06/17 12:47:03;;;;;;;2.75;1.00;;;23.10;99.90;;;;;;12170230;29;20139;-84
2022/06/17 12:53:28;;;;;;;2.25;0.90;;;22.90;99.90;;;;;;12211455;29;20056;-83
2022/06/17 12:59:42;;;;;;;1.88;0.88;;;22.80;99.90;;;;;;12168199;29;20135;-83
2022/06/17 13:05:46;;;;;;;2.45;0.95;;;22.70;99.90;;;;;;12180638;29;20040;-83
2022/06/17 13:12:14;;;;;;;3.63;0.80;;;22.60;99.90;;;;;;12201531;29;20421;-83
2022/06/17 13:18:37;;;;;;;2.13;0.90;;;22.50;99.90;;;;;;12186765;29;20056;-83
2022/06/17 13:24:52;;;;;;;4.10;0.80;;;22.50;99.90;;;;;;12196120;29;20188;-83
2022/06/17 13:31:00;;;;;;;2.53;0.70;;;22.60;99.90;;;;;;12181528;29;20052;-83
2022/06/17 13:37:17;;;;;;;2.88;0.70;;;22.90;99.90;;;;;;12190976;29;20056;-84
2022/06/17 13:43:29;;;;;;;3.03;0.75;;;23.00;99.90;;;;;;12162609;29;20052;-82
2022/06/17 13:49:39;;;;;;;1.15;0.70;;;23.00;99.90;;;;;;12196562;29;20048;-83
2022/06/17 13:55:53;;;;;;;3.03;1.05;;;22.90;99.90;;;;;;12246735;29;20052;-83
2022/06/17 14:02:48;;;;;;;1.65;0.90;;;22.90;99.90;;;;;;12226271;28;20056;-84
2022/06/17 14:09:21;;;;;;;2.67;0.90;;;23.00;99.90;;;;;;12621897;28;20106;-36
2022/06/17 14:15:29;;;;;;;5.03;0.90;;;23.20;99.90;;;;;;12533800;28;20052;-38
2022/06/17 14:21:34;;;;;;;1.92;0.75;;;23.20;99.90;;;;;;12526890;28;20083;-38
2022/06/17 14:27:47;;;;;;;2.05;0.93;;;23.30;99.90;;;;;;12526878;28;20378;-40
2022/06/17 14:33:49;;;;;;;2.65;1.00;;;23.20;99.90;;;;;;12529658;28;20045;-35
2022/06/17 14:40:01;;;;;;;2.30;0.77;;;23.10;99.90;;;;;;12526930;28;20053;-38
2022/06/17 14:46:03;;;;;;;1.52;0.68;;;23.30;99.90;;;;;;12527659;28;20520;-38
2022/06/17 14:52:23;;;;;;;4.68;0.80;;;23.40;99.90;;;;;;12524871;28;20056;-38
2022/06/17 14:58:48;;;;;;;2.03;0.95;;;23.40;99.90;;;;;;12520606;28;20457;-36
2022/06/17 15:04:55;;;;;;;1.70;0.70;;;23.30;99.90;;;;;;12529274;28;20042;-35
2022/06/17 15:11:25;;;;;;;3.67;0.80;;;23.30;99.90;;;;;;12521367;28;20488;-39
2022/06/17 15:17:49;;;;;;;1.50;0.73;;;23.20;99.90;;;;;;12505875;28;20600;-39
2022/06/17 15:24:14;;;;;;;5.40;0.80;;;23.10;99.90;;;;;;12489194;28;20065;-38
2022/06/17 15:30:18;;;;;;;1.92;0.90;;;23.10;99.90;;;;;;12458636;28;20049;-41
2022/06/17 15:36:41;;;;;;;2.05;0.93;;;23.10;99.90;;;;;;12490567;28;20108;-39
2022/06/17 15:43:08;;;;;;;1.35;0.70;;;23.20;99.90;;;;;;12485088;28;20143;-36
2022/06/17 15:49:17;;;;;;;2.10;0.80;;;23.10;99.90;;;;;;12492512;28;20463;-35
2022/06/17 15:55:25;;;;;;;3.55;0.70;;;23.10;99.90;;;;;;12488955;28;20037;-35
2022/06/17 16:01:53;;;;;;;1.95;0.68;;;23.10;99.90;;;;;;12488343;28;20060;-39
2022/06/17 16:07:59;;;;;;;0.95;0.63;;;23.20;99.90;;;;;;12477579;28;20057;-36
2022/06/17 16:14:23;;;;;;;3.17;0.88;;;23.30;99.90;;;;;;12488674;28;20106;-39
2022/06/17 16:20:36;;;;;;;1.88;0.73;;;23.40;99.90;;;;;;12488124;28;20083;-38
2022/06/17 16:26:54;;;;;;;2.33;0.75;;;23.70;99.90;;;;;;12488469;28;20500;-39
2022/06/17 16:33:00;;;;;;;1.90;0.80;;;23.90;99.90;;;;;;12488332;28;20447;-35
2022/06/17 16:39:30;;;;;;;1.88;0.70;;;24.10;99.90;;;;;;12490686;28;20054;-38
2022/06/17 16:45:32;;;;;;;2.35;0.80;;;23.90;99.90;;;;;;12481243;28;20041;-35
2022/06/17 16:51:34;;;;;;;3.47;1.00;;;23.80;99.90;;;;;;12486867;28;20041;-35
2022/06/17 16:57:37;;;;;;;2.90;0.80;;;23.80;99.90;;;;;;12488668;28;20127;-34
2022/06/17 17:03:39;;;;;;;2.92;0.98;;;23.60;99.90;;;;;;12486085;28;21227;-38
2022/06/17 17:09:41;;;;;;;4.15;0.88;;;23.40;99.90;;;;;;12490576;28;20049;-35
2022/06/17 17:15:43;;;;;;;1.90;1.00;;;23.40;99.90;;;;;;12485551;28;20049;-39
2022/06/17 17:21:48;;;;;;;2.67;0.80;;;23.40;99.90;;;;;;12490149;28;20056;-35
2022/06/17 17:27:51;;;;;;;2.53;1.45;;;23.40;99.90;;;;;;12486285;28;20049;-34
2022/06/17 17:33:53;;;;;;;2.33;0.95;;;23.30;99.90;;;;;;12488279;28;20046;-39
2022/06/17 17:39:55;;;;;;;2.42;0.98;;;23.30;99.90;;;;;;12484418;28;20132;-38
2022/06/17 17:45:57;;;;;;;3.38;0.90;;;23.10;99.90;;;;;;12487709;28;20064;-38
2022/06/17 17:51:59;;;;;;;4.15;0.73;;;23.00;99.90;;;;;;12487599;28;20393;-36
2022/06/17 17:58:03;;;;;;;5.20;1.17;;;22.90;99.90;;;;;;12479962;28;20378;-35
2022/06/17 18:04:10;;;;;;;2.85;1.23;;;22.80;99.90;;;;;;12485903;28;20144;-39
2022/06/17 18:10:13;;;;;;;1.67;0.90;;;22.70;99.90;;;;;;12477878;28;20133;-38
2022/06/17 18:16:15;;;;;;;4.35;1.08;;;22.70;99.90;;;;;;12483769;28;20183;-39
2022/06/17 18:22:18;;;;;;;2.85;1.15;;;22.50;99.90;;;;;;12478993;28;20444;-40
2022/06/17 18:28:20;;;;;;;2.37;1.10;;;22.40;99.90;;;;;;12477564;28;20136;-35
2022/06/17 18:34:29;;;;;;;2.42;1.08;;;22.40;99.90;;;;;;12485622;28;20192;-38
2022/06/17 18:40:31;;;;;;;1.00;0.80;;;22.30;99.90;;;;;;12483497;28;20053;-39
2022/06/17 18:46:37;;;;;;;4.80;1.00;;;22.20;99.90;;;;;;12484147;28;20542;-36
2022/06/17 18:52:38;;;;;;;5.35;1.02;;;22.20;99.90;;;;;;12485821;28;20138;-35
2022/06/17 18:58:40;;;;;;;5.10;1.23;;;22.10;99.90;;;;;;12483012;28;20499;-35
2022/06/17 19:04:42;;;;;;;1.38;0.90;;;22.10;99.90;;;;;;12490537;28;20046;-35
2022/06/17 19:17:22;;;;;;;3.10;1.27;;;21.90;99.90;;;;;;12487355;28;20489;-35
2022/06/17 19:23:26;;;;;;;2.53;1.00;;;21.80;99.90;;;;;;12491126;28;20053;-38
2022/06/17 19:29:28;;;;;;;5.25;1.30;;;21.80;99.90;;;;;;12492873;28;20473;-35
2022/06/17 19:36:01;;;;;;;4.00;1.13;;;21.80;99.90;;;;;;12492658;28;20054;-39
2022/06/17 19:42:05;;;;;;;1.50;0.80;;;21.80;99.90;;;;;;12486833;28;20451;-39
2022/06/17 19:48:10;;;;;;;2.80;1.25;;;21.90;99.90;;;;;;12484675;28;20539;-35
2022/06/17 19:54:13;;;;;;;2.00;0.98;;;21.80;99.90;;;;;;12492588;28;20528;-36
2022/06/17 20:00:17;;;;;;;4.77;1.13;;;21.70;99.90;;;;;;12488534;28;20417;-35
2022/06/17 20:06:20;;;;;;;3.22;1.23;;;21.70;99.90;;;;;;12481622;28;20072;-35
2022/06/17 20:12:30;;;;;;;2.13;1.30;;;21.80;99.90;;;;;;12491367;28;20052;-35
2022/06/17 20:18:32;;;;;;;2.60;1.30;;;21.70;99.90;;;;;;12486641;28;20099;-38
2022/06/17 20:24:38;;;;;;;2.55;1.33;;;21.70;99.90;;;;;;12489270;28;20037;-38
2022/06/17 20:30:40;;;;;;;3.88;1.30;;;21.80;99.90;;;;;;12489901;28;20099;-35
2022/06/17 20:36:42;;;;;;;4.63;1.50;;;22.00;99.90;;;;;;12489919;28;20061;-35
2022/06/17 20:42:44;;;;;;;4.38;1.40;;;22.00;99.90;;;;;;12492299;28;20049;-38
2022/06/17 20:55:18;;;;;;;2.55;1.33;;;21.90;99.90;;;;;;12479868;28;20045;-36
2022/06/17 21:01:24;;;;;;;5.38;1.40;;;21.80;99.90;;;;;;12478358;28;20057;-35
2022/06/17 21:07:26;;;;;;;2.83;1.50;;;21.80;99.90;;;;;;12485344;28;20050;-38
2022/06/17 21:13:34;;;;;;;1.83;1.27;;;21.70;99.90;;;;;;12478528;28;20042;-35
2022/06/17 21:19:41;;;;;;;1.90;1.23;;;21.70;99.90;;;;;;12486396;28;20477;-36
2022/06/17 21:25:43;;;;;;;5.30;1.50;;;21.70;99.90;;;;;;12487038;28;20053;-38
2022/06/17 21:31:45;;;;;;;3.35;1.40;;;21.70;99.90;;;;;;12487199;28;20561;-38
2022/06/17 21:38:02;;;;;;;2.97;1.40;;;21.60;99.90;;;;;;12485949;28;20087;-39
2022/06/17 21:44:03;;;;;;;2.90;1.50;;;21.50;99.90;;;;;;12471506;28;20099;-35
2022/06/17 21:50:06;;;;;;;2.05;1.25;;;21.60;99.90;;;;;;12485896;28;20049;-35
2022/06/17 21:56:15;;;;;;;1.80;1.20;;;21.60;99.90;;;;;;12474248;28;20099;-35
2022/06/17 22:02:19;;;;;;;4.82;1.50;;;21.60;99.90;;;;;;12487605;28;20053;-38
2022/06/17 22:08:28;;;;;;;2.50;1.50;;;21.60;99.90;;;;;;12486561;28;20049;-35
2022/06/17 22:14:35;;;;;;;3.75;1.45;;;21.50;99.90;;;;;;12482356;28;20460;-38
2022/06/17 22:20:40;;;;;;;2.65;1.30;;;21.60;99.90;;;;;;12483544;28;20551;-38
2022/06/17 22:26:42;;;;;;;1.48;1.05;;;21.60;99.90;;;;;;12489579;28;20045;-39
2022/06/17 22:32:45;;;;;;;4.22;1.35;;;21.70;99.90;;;;;;12495382;28;20089;-36
2022/06/17 22:38:47;;;;;;;3.27;1.13;;;21.60;99.90;;;;;;12495951;28;20107;-36
2022/06/17 22:44:50;;;;;;;2.38;1.27;;;21.70;99.90;;;;;;12487777;28;20071;-38
2022/06/17 22:50:56;;;;;;;1.90;1.20;;;21.60;99.90;;;;;;12494243;28;20525;-38
2022/06/17 22:56:58;;;;;;;1.70;1.27;;;21.50;99.90;;;;;;12494760;28;20049;-38
2022/06/17 23:09:21;;;;;;;1.90;1.10;;;21.50;99.90;;;;;;12494488;28;20060;-38
2022/06/17 23:15:23;;;;;;;2.30;1.02;;;21.50;99.90;;;;;;12492369;28;20489;-37
2022/06/17 23:21:37;;;;;;;2.97;1.30;;;21.40;99.90;;;;;;12494833;28;20049;-35
2022/06/17 23:27:39;;;;;;;2.70;1.30;;;21.20;99.90;;;;;;12488673;28;20094;-38
2022/06/17 23:33:45;;;;;;;3.28;1.20;;;21.10;99.90;;;;;;12493264;28;20538;-35
2022/06/17 23:39:47;;;;;;;1.85;1.00;;;21.10;99.90;;;;;;12492251;28;20184;-35
2022/06/17 23:45:53;;;;;;;3.63;1.10;;;21.10;99.90;;;;;;12492571;28;20127;-35
2022/06/17 23:51:56;;;;;;;2.88;1.20;;;21.10;99.90;;;;;;12488492;28;20128;-35
2022/06/17 23:57:59;;;;;;;4.50;1.30;;;21.10;99.90;;;;;;12489837;28;20049;-37
